sensor_id;sensor_type;location;lat;lon;timestamp;P1;durP1;ratioP1;P2;durP2;ratioP2
34876;SDS011;21086;44.780;17.194;2022-10-23T00:01:19;2.28;;;1.60;;
34876;SDS011;21086;44.780;17.194;2022-10-23T00:03:57;2.00;;;1.70;;
34876;SDS011;21086;44.780;17.194;2022-10-23T00:06:26;3.08;;;1.50;;
34876;SDS011;21086;44.780;17.194;2022-10-23T00:08:55;2.00;;;1.60;;
34876;SDS011;21086;44.780;17.194;2022-10-23T00:11:23;1.83;;;1.20;;
34876;SDS011;21086;44.780;17.194;2022-10-23T00:13:56;2.33;;;1.55;;
34876;SDS011;21086;44.780;17.194;2022-10-23T00:16:24;2.55;;;1.40;;
34876;SDS011;21086;44.780;17.194;2022-10-23T00:18:52;4.78;;;1.50;;
34876;SDS011;21086;44.780;17.194;2022-10-23T00:21:22;1.65;;;1.30;;
34876;SDS011;21086;44.780;17.194;2022-10-23T00:23:50;2.15;;;1.50;;
34876;SDS011;21086;44.780;17.194;2022-10-23T00:26:17;3.25;;;1.60;;
34876;SDS011;21086;44.780;17.194;2022-10-23T00:28:45;5.32;;;1.45;;
34876;SDS011;21086;44.780;17.194;2022-10-23T00:31:13;2.55;;;1.52;;
34876;SDS011;21086;44.780;17.194;2022-10-23T00:33:41;2.13;;;1.73;;
34876;SDS011;21086;44.780;17.194;2022-10-23T00:36:09;3.15;;;2.13;;
34876;SDS011;21086;44.780;17.194;2022-10-23T00:38:38;2.33;;;1.63;;
34876;SDS011;21086;44.780;17.194;2022-10-23T00:41:06;2.22;;;1.75;;
34876;SDS011;21086;44.780;17.194;2022-10-23T00:43:34;2.17;;;1.67;;
34876;SDS011;21086;44.780;17.194;2022-10-23T00:46:31;2.08;;;1.40;;
34876;SDS011;21086;44.780;17.194;2022-10-23T00:48:58;2.35;;;1.48;;
34876;SDS011;21086;44.780;17.194;2022-10-23T00:51:27;2.10;;;1.58;;
34876;SDS011;21086;44.780;17.194;2022-10-23T00:53:58;1.83;;;1.35;;
34876;SDS011;21086;44.780;17.194;2022-10-23T00:56:47;4.25;;;1.80;;
34876;SDS011;21086;44.780;17.194;2022-10-23T00:59:14;2.35;;;1.80;;
34876;SDS011;21086;44.780;17.194;2022-10-23T01:01:41;2.50;;;1.40;;
34876;SDS011;21086;44.780;17.194;2022-10-23T01:04:08;2.22;;;1.50;;
34876;SDS011;21086;44.780;17.194;2022-10-23T01:06:44;1.88;;;1.60;;
34876;SDS011;21086;44.780;17.194;2022-10-23T01:09:18;3.00;;;2.10;;
34876;SDS011;21086;44.780;17.194;2022-10-23T01:21:03;2.03;;;1.60;;
34876;SDS011;21086;44.780;17.194;2022-10-23T01:23:46;5.78;;;1.90;;
34876;SDS011;21086;44.780;17.194;2022-10-23T01:34:37;3.15;;;1.70;;
34876;SDS011;21086;44.780;17.194;2022-10-23T01:37:07;2.83;;;1.60;;
34876;SDS011;21086;44.780;17.194;2022-10-23T01:39:39;4.03;;;1.77;;
34876;SDS011;21086;44.780;17.194;2022-10-23T01:42:15;2.25;;;1.63;;
34876;SDS011;21086;44.780;17.194;2022-10-23T01:44:45;3.33;;;1.95;;
34876;SDS011;21086;44.780;17.194;2022-10-23T01:47:17;2.42;;;1.77;;
34876;SDS011;21086;44.780;17.194;2022-10-23T01:49:48;2.75;;;2.28;;
34876;SDS011;21086;44.780;17.194;2022-10-23T01:52:17;2.80;;;1.75;;
34876;SDS011;21086;44.780;17.194;2022-10-23T01:54:46;3.60;;;2.50;;
34876;SDS011;21086;44.780;17.194;2022-10-23T01:57:15;2.95;;;2.47;;
34876;SDS011;21086;44.780;17.194;2022-10-23T01:59:46;3.65;;;2.78;;
34876;SDS011;21086;44.780;17.194;2022-10-23T02:02:20;4.00;;;2.10;;
34876;SDS011;21086;44.780;17.194;2022-10-23T02:04:54;2.53;;;2.10;;
34876;SDS011;21086;44.780;17.194;2022-10-23T02:07:25;2.42;;;2.00;;
34876;SDS011;21086;44.780;17.194;2022-10-23T02:09:52;2.47;;;1.85;;
34876;SDS011;21086;44.780;17.194;2022-10-23T02:12:28;2.70;;;2.25;;
34876;SDS011;21086;44.780;17.194;2022-10-23T02:15:25;4.30;;;2.70;;
34876;SDS011;21086;44.780;17.194;2022-10-23T02:20:27;4.45;;;3.35;;
34876;SDS011;21086;44.780;17.194;2022-10-23T02:22:57;4.78;;;2.72;;
34876;SDS011;21086;44.780;17.194;2022-10-23T02:25:42;2.95;;;2.40;;
34876;SDS011;21086;44.780;17.194;2022-10-23T02:28:24;3.83;;;2.47;;
34876;SDS011;21086;44.780;17.194;2022-10-23T02:30:56;3.03;;;2.58;;
34876;SDS011;21086;44.780;17.194;2022-10-23T02:33:26;3.88;;;2.95;;
34876;SDS011;21086;44.780;17.194;2022-10-23T02:35:55;4.30;;;2.40;;
34876;SDS011;21086;44.780;17.194;2022-10-23T02:38:29;2.72;;;1.92;;
34876;SDS011;21086;44.780;17.194;2022-10-23T02:41:24;2.58;;;1.95;;
34876;SDS011;21086;44.780;17.194;2022-10-23T02:52:27;4.85;;;2.90;;
34876;SDS011;21086;44.780;17.194;2022-10-23T02:57:31;5.85;;;3.95;;
34876;SDS011;21086;44.780;17.194;2022-10-23T03:00:12;6.18;;;3.20;;
34876;SDS011;21086;44.780;17.194;2022-10-23T03:05:25;3.35;;;2.55;;
34876;SDS011;21086;44.780;17.194;2022-10-23T03:07:58;2.47;;;2.13;;
34876;SDS011;21086;44.780;17.194;2022-10-23T03:10:25;6.82;;;2.65;;
34876;SDS011;21086;44.780;17.194;2022-10-23T03:12:52;3.72;;;2.50;;
34876;SDS011;21086;44.780;17.194;2022-10-23T03:15:18;3.30;;;2.50;;
34876;SDS011;21086;44.780;17.194;2022-10-23T03:17:45;3.55;;;3.00;;
34876;SDS011;21086;44.780;17.194;2022-10-23T03:20:12;5.57;;;3.67;;
34876;SDS011;21086;44.780;17.194;2022-10-23T03:22:39;3.47;;;3.03;;
34876;SDS011;21086;44.780;17.194;2022-10-23T03:25:07;4.13;;;3.00;;
34876;SDS011;21086;44.780;17.194;2022-10-23T03:27:35;4.22;;;2.95;;
34876;SDS011;21086;44.780;17.194;2022-10-23T03:30:03;4.00;;;3.17;;
34876;SDS011;21086;44.780;17.194;2022-10-23T03:32:31;5.90;;;3.78;;
34876;SDS011;21086;44.780;17.194;2022-10-23T03:34:58;5.00;;;3.58;;
34876;SDS011;21086;44.780;17.194;2022-10-23T03:37:25;5.53;;;4.40;;
34876;SDS011;21086;44.780;17.194;2022-10-23T03:39:51;4.60;;;4.07;;
34876;SDS011;21086;44.780;17.194;2022-10-23T03:42:18;4.47;;;3.42;;
34876;SDS011;21086;44.780;17.194;2022-10-23T03:44:45;5.47;;;3.33;;
34876;SDS011;21086;44.780;17.194;2022-10-23T03:47:12;3.47;;;3.10;;
34876;SDS011;21086;44.780;17.194;2022-10-23T03:49:39;3.90;;;3.28;;
34876;SDS011;21086;44.780;17.194;2022-10-23T03:52:06;4.32;;;3.58;;
34876;SDS011;21086;44.780;17.194;2022-10-23T03:54:34;5.45;;;4.10;;
34876;SDS011;21086;44.780;17.194;2022-10-23T03:57:01;4.03;;;3.05;;
34876;SDS011;21086;44.780;17.194;2022-10-23T03:59:28;5.25;;;3.63;;
34876;SDS011;21086;44.780;17.194;2022-10-23T04:01:55;6.20;;;4.10;;
34876;SDS011;21086;44.780;17.194;2022-10-23T04:04:22;4.45;;;3.72;;
34876;SDS011;21086;44.780;17.194;2022-10-23T04:06:49;6.22;;;3.67;;
34876;SDS011;21086;44.780;17.194;2022-10-23T04:09:16;5.25;;;3.58;;
34876;SDS011;21086;44.780;17.194;2022-10-23T04:11:42;7.22;;;3.65;;
34876;SDS011;21086;44.780;17.194;2022-10-23T04:14:12;12.35;;;5.90;;
34876;SDS011;21086;44.780;17.194;2022-10-23T04:16:39;21.20;;;11.15;;
34876;SDS011;21086;44.780;17.194;2022-10-23T04:19:06;22.50;;;11.77;;
34876;SDS011;21086;44.780;17.194;2022-10-23T04:21:33;22.02;;;14.27;;
34876;SDS011;21086;44.780;17.194;2022-10-23T04:24:00;24.35;;;15.07;;
34876;SDS011;21086;44.780;17.194;2022-10-23T04:26:27;23.20;;;14.77;;
34876;SDS011;21086;44.780;17.194;2022-10-23T04:28:54;22.30;;;12.13;;
34876;SDS011;21086;44.780;17.194;2022-10-23T04:31:21;22.95;;;14.52;;
34876;SDS011;21086;44.780;17.194;2022-10-23T04:33:48;24.70;;;14.30;;
34876;SDS011;21086;44.780;17.194;2022-10-23T04:36:14;29.67;;;15.52;;
34876;SDS011;21086;44.780;17.194;2022-10-23T04:38:42;20.08;;;11.77;;
34876;SDS011;21086;44.780;17.194;2022-10-23T04:41:08;19.23;;;10.98;;
34876;SDS011;21086;44.780;17.194;2022-10-23T04:43:35;19.48;;;11.55;;
34876;SDS011;21086;44.780;17.194;2022-10-23T04:46:02;25.85;;;10.38;;
34876;SDS011;21086;44.780;17.194;2022-10-23T04:48:29;20.02;;;8.38;;
34876;SDS011;21086;44.780;17.194;2022-10-23T04:51:00;22.30;;;8.57;;
34876;SDS011;21086;44.780;17.194;2022-10-23T04:53:28;20.73;;;9.68;;
34876;SDS011;21086;44.780;17.194;2022-10-23T04:55:57;24.27;;;7.90;;
34876;SDS011;21086;44.780;17.194;2022-10-23T04:58:25;25.63;;;8.15;;
34876;SDS011;21086;44.780;17.194;2022-10-23T05:00:54;22.70;;;9.35;;
34876;SDS011;21086;44.780;17.194;2022-10-23T05:03:21;28.00;;;9.65;;
34876;SDS011;21086;44.780;17.194;2022-10-23T05:05:53;48.55;;;10.05;;
34876;SDS011;21086;44.780;17.194;2022-10-23T05:08:21;17.02;;;9.32;;
34876;SDS011;21086;44.780;17.194;2022-10-23T05:10:48;39.90;;;9.35;;
34876;SDS011;21086;44.780;17.194;2022-10-23T05:13:16;16.75;;;8.40;;
34876;SDS011;21086;44.780;17.194;2022-10-23T05:15:48;12.25;;;7.60;;
34876;SDS011;21086;44.780;17.194;2022-10-23T05:20:50;14.30;;;8.43;;
34876;SDS011;21086;44.780;17.194;2022-10-23T05:23:23;28.58;;;7.38;;
34876;SDS011;21086;44.780;17.194;2022-10-23T05:25:51;16.73;;;7.53;;
34876;SDS011;21086;44.780;17.194;2022-10-23T05:28:18;25.23;;;12.00;;
34876;SDS011;21086;44.780;17.194;2022-10-23T05:30:45;35.92;;;9.77;;
34876;SDS011;21086;44.780;17.194;2022-10-23T05:33:12;29.02;;;9.52;;
34876;SDS011;21086;44.780;17.194;2022-10-23T05:35:39;16.70;;;8.02;;
34876;SDS011;21086;44.780;17.194;2022-10-23T05:38:08;17.23;;;7.88;;
34876;SDS011;21086;44.780;17.194;2022-10-23T05:40:35;22.65;;;7.47;;
34876;SDS011;21086;44.780;17.194;2022-10-23T05:43:02;32.33;;;9.70;;
34876;SDS011;21086;44.780;17.194;2022-10-23T05:45:29;18.73;;;8.20;;
34876;SDS011;21086;44.780;17.194;2022-10-23T05:47:56;21.33;;;8.40;;
34876;SDS011;21086;44.780;17.194;2022-10-23T05:50:42;19.52;;;8.30;;
34876;SDS011;21086;44.780;17.194;2022-10-23T05:53:09;16.48;;;8.20;;
34876;SDS011;21086;44.780;17.194;2022-10-23T05:55:36;11.85;;;6.72;;
34876;SDS011;21086;44.780;17.194;2022-10-23T05:58:03;15.35;;;8.75;;
34876;SDS011;21086;44.780;17.194;2022-10-23T06:00:30;20.45;;;8.52;;
34876;SDS011;21086;44.780;17.194;2022-10-23T06:02:58;16.55;;;7.00;;
34876;SDS011;21086;44.780;17.194;2022-10-23T06:05:26;21.25;;;7.25;;
34876;SDS011;21086;44.780;17.194;2022-10-23T06:07:56;24.83;;;8.95;;
34876;SDS011;21086;44.780;17.194;2022-10-23T06:10:23;25.70;;;10.55;;
34876;SDS011;21086;44.780;17.194;2022-10-23T06:12:50;17.95;;;9.35;;
34876;SDS011;21086;44.780;17.194;2022-10-23T06:15:18;17.42;;;9.57;;
34876;SDS011;21086;44.780;17.194;2022-10-23T06:17:44;16.83;;;8.98;;
34876;SDS011;21086;44.780;17.194;2022-10-23T06:20:11;23.45;;;9.65;;
34876;SDS011;21086;44.780;17.194;2022-10-23T06:22:38;16.38;;;9.10;;
34876;SDS011;21086;44.780;17.194;2022-10-23T06:25:06;14.32;;;8.27;;
34876;SDS011;21086;44.780;17.194;2022-10-23T06:27:33;16.83;;;8.95;;
34876;SDS011;21086;44.780;17.194;2022-10-23T06:30:00;13.02;;;8.43;;
34876;SDS011;21086;44.780;17.194;2022-10-23T06:32:29;35.28;;;8.48;;
34876;SDS011;21086;44.780;17.194;2022-10-23T06:34:57;15.60;;;8.65;;
34876;SDS011;21086;44.780;17.194;2022-10-23T06:37:24;22.88;;;9.90;;
34876;SDS011;21086;44.780;17.194;2022-10-23T06:39:50;14.82;;;8.90;;
34876;SDS011;21086;44.780;17.194;2022-10-23T06:42:17;17.35;;;8.20;;
34876;SDS011;21086;44.780;17.194;2022-10-23T06:44:44;19.50;;;9.00;;
34876;SDS011;21086;44.780;17.194;2022-10-23T06:47:11;15.85;;;8.68;;
34876;SDS011;21086;44.780;17.194;2022-10-23T06:49:39;18.77;;;11.23;;
34876;SDS011;21086;44.780;17.194;2022-10-23T06:52:06;13.77;;;9.27;;
34876;SDS011;21086;44.780;17.194;2022-10-23T06:54:48;21.67;;;11.40;;
34876;SDS011;21086;44.780;17.194;2022-10-23T06:57:15;22.58;;;12.55;;
34876;SDS011;21086;44.780;17.194;2022-10-23T06:59:42;17.67;;;12.55;;
34876;SDS011;21086;44.780;17.194;2022-10-23T07:02:09;15.63;;;11.25;;
34876;SDS011;21086;44.780;17.194;2022-10-23T07:04:36;12.95;;;9.48;;
34876;SDS011;21086;44.780;17.194;2022-10-23T07:07:04;10.40;;;7.93;;
34876;SDS011;21086;44.780;17.194;2022-10-23T07:09:33;13.02;;;8.48;;
34876;SDS011;21086;44.780;17.194;2022-10-23T07:12:01;12.25;;;8.77;;
34876;SDS011;21086;44.780;17.194;2022-10-23T07:14:27;11.18;;;7.47;;
34876;SDS011;21086;44.780;17.194;2022-10-23T07:16:57;13.88;;;8.55;;
34876;SDS011;21086;44.780;17.194;2022-10-23T07:19:25;9.27;;;8.20;;
34876;SDS011;21086;44.780;17.194;2022-10-23T07:21:51;10.27;;;7.75;;
34876;SDS011;21086;44.780;17.194;2022-10-23T07:24:18;11.35;;;8.68;;
34876;SDS011;21086;44.780;17.194;2022-10-23T07:26:45;8.23;;;7.18;;
34876;SDS011;21086;44.780;17.194;2022-10-23T07:29:12;10.32;;;7.22;;
34876;SDS011;21086;44.780;17.194;2022-10-23T07:31:39;7.75;;;6.70;;
34876;SDS011;21086;44.780;17.194;2022-10-23T07:34:06;9.63;;;7.50;;
34876;SDS011;21086;44.780;17.194;2022-10-23T07:36:33;13.00;;;8.65;;
34876;SDS011;21086;44.780;17.194;2022-10-23T07:39:00;10.00;;;7.53;;
34876;SDS011;21086;44.780;17.194;2022-10-23T07:41:27;8.95;;;7.85;;
34876;SDS011;21086;44.780;17.194;2022-10-23T07:43:54;10.00;;;8.68;;
34876;SDS011;21086;44.780;17.194;2022-10-23T07:46:21;15.15;;;8.88;;
34876;SDS011;21086;44.780;17.194;2022-10-23T07:48:49;11.52;;;9.05;;
34876;SDS011;21086;44.780;17.194;2022-10-23T07:51:16;12.07;;;9.55;;
34876;SDS011;21086;44.780;17.194;2022-10-23T07:53:43;11.93;;;10.68;;
34876;SDS011;21086;44.780;17.194;2022-10-23T07:56:14;13.27;;;10.85;;
34876;SDS011;21086;44.780;17.194;2022-10-23T07:58:43;12.00;;;10.63;;
34876;SDS011;21086;44.780;17.194;2022-10-23T08:01:12;11.65;;;10.00;;
34876;SDS011;21086;44.780;17.194;2022-10-23T08:03:42;10.30;;;8.35;;
34876;SDS011;21086;44.780;17.194;2022-10-23T08:06:10;8.77;;;7.70;;
34876;SDS011;21086;44.780;17.194;2022-10-23T08:08:37;11.90;;;7.93;;
34876;SDS011;21086;44.780;17.194;2022-10-23T08:11:04;10.55;;;8.40;;
34876;SDS011;21086;44.780;17.194;2022-10-23T08:13:31;9.52;;;8.18;;
34876;SDS011;21086;44.780;17.194;2022-10-23T08:15:58;11.95;;;9.80;;
34876;SDS011;21086;44.780;17.194;2022-10-23T08:18:25;13.02;;;10.35;;
34876;SDS011;21086;44.780;17.194;2022-10-23T08:20:51;16.10;;;12.75;;
34876;SDS011;21086;44.780;17.194;2022-10-23T08:23:19;17.17;;;14.00;;
34876;SDS011;21086;44.780;17.194;2022-10-23T08:25:45;15.13;;;12.25;;
34876;SDS011;21086;44.780;17.194;2022-10-23T08:28:12;12.63;;;11.32;;
34876;SDS011;21086;44.780;17.194;2022-10-23T08:30:40;18.38;;;12.88;;
34876;SDS011;21086;44.780;17.194;2022-10-23T08:33:08;14.88;;;12.38;;
34876;SDS011;21086;44.780;17.194;2022-10-23T08:35:35;12.80;;;11.48;;
34876;SDS011;21086;44.780;17.194;2022-10-23T08:38:03;15.73;;;12.40;;
34876;SDS011;21086;44.780;17.194;2022-10-23T08:40:30;16.30;;;12.10;;
34876;SDS011;21086;44.780;17.194;2022-10-23T08:42:58;11.50;;;9.88;;
34876;SDS011;21086;44.780;17.194;2022-10-23T08:45:50;15.38;;;12.25;;
34876;SDS011;21086;44.780;17.194;2022-10-23T08:51:21;18.55;;;14.52;;
34876;SDS011;21086;44.780;17.194;2022-10-23T08:56:51;14.85;;;13.20;;
34876;SDS011;21086;44.780;17.194;2022-10-23T09:02:15;15.68;;;10.98;;
34876;SDS011;21086;44.780;17.194;2022-10-23T09:04:47;13.57;;;11.43;;
34876;SDS011;21086;44.780;17.194;2022-10-23T09:07:23;18.90;;;11.85;;
34876;SDS011;21086;44.780;17.194;2022-10-23T09:13:03;10.93;;;9.68;;
34876;SDS011;21086;44.780;17.194;2022-10-23T09:15:41;14.20;;;11.40;;
34876;SDS011;21086;44.780;17.194;2022-10-23T09:18:14;14.48;;;12.05;;
34876;SDS011;21086;44.780;17.194;2022-10-23T09:20:45;10.90;;;9.65;;
34876;SDS011;21086;44.780;17.194;2022-10-23T09:23:22;18.85;;;12.88;;
34876;SDS011;21086;44.780;17.194;2022-10-23T09:25:50;14.70;;;10.15;;
34876;SDS011;21086;44.780;17.194;2022-10-23T09:28:23;11.05;;;8.82;;
34876;SDS011;21086;44.780;17.194;2022-10-23T09:30:52;12.57;;;9.60;;
34876;SDS011;21086;44.780;17.194;2022-10-23T09:33:30;11.13;;;8.15;;
34876;SDS011;21086;44.780;17.194;2022-10-23T09:36:00;11.82;;;8.23;;
34876;SDS011;21086;44.780;17.194;2022-10-23T09:41:05;15.35;;;9.30;;
34876;SDS011;21086;44.780;17.194;2022-10-23T09:43:33;13.38;;;11.02;;
34876;SDS011;21086;44.780;17.194;2022-10-23T09:46:01;14.38;;;9.48;;
34876;SDS011;21086;44.780;17.194;2022-10-23T09:48:30;10.18;;;8.13;;
34876;SDS011;21086;44.780;17.194;2022-10-23T09:51:03;13.52;;;8.77;;
34876;SDS011;21086;44.780;17.194;2022-10-23T09:56:23;10.93;;;8.45;;
34876;SDS011;21086;44.780;17.194;2022-10-23T09:59:03;9.18;;;7.03;;
34876;SDS011;21086;44.780;17.194;2022-10-23T10:01:45;14.90;;;8.43;;
34876;SDS011;21086;44.780;17.194;2022-10-23T10:04:14;7.75;;;5.93;;
34876;SDS011;21086;44.780;17.194;2022-10-23T10:06:41;7.28;;;5.55;;
34876;SDS011;21086;44.780;17.194;2022-10-23T10:09:12;12.00;;;6.63;;
34876;SDS011;21086;44.780;17.194;2022-10-23T10:11:45;7.65;;;5.93;;
34876;SDS011;21086;44.780;17.194;2022-10-23T10:24:55;7.10;;;5.63;;
34876;SDS011;21086;44.780;17.194;2022-10-23T10:27:38;6.82;;;4.70;;
34876;SDS011;21086;44.780;17.194;2022-10-23T10:30:13;8.38;;;5.35;;
34876;SDS011;21086;44.780;17.194;2022-10-23T10:44:16;9.95;;;8.85;;
34876;SDS011;21086;44.780;17.194;2022-10-23T10:52:40;10.95;;;8.13;;
34876;SDS011;21086;44.780;17.194;2022-10-23T10:55:26;11.27;;;8.52;;
34876;SDS011;21086;44.780;17.194;2022-10-23T11:01:07;13.25;;;11.63;;
34876;SDS011;21086;44.780;17.194;2022-10-23T11:03:47;12.98;;;9.85;;
34876;SDS011;21086;44.780;17.194;2022-10-23T11:06:20;12.27;;;9.93;;
34876;SDS011;21086;44.780;17.194;2022-10-23T11:08:50;9.60;;;6.55;;
34876;SDS011;21086;44.780;17.194;2022-10-23T11:11:34;7.25;;;5.88;;
34876;SDS011;21086;44.780;17.194;2022-10-23T11:14:02;7.15;;;5.88;;
34876;SDS011;21086;44.780;17.194;2022-10-23T11:16:33;12.70;;;8.48;;
34876;SDS011;21086;44.780;17.194;2022-10-23T11:19:06;13.07;;;8.13;;
34876;SDS011;21086;44.780;17.194;2022-10-23T11:22:05;10.38;;;6.13;;
34876;SDS011;21086;44.780;17.194;2022-10-23T11:30:24;8.02;;;5.40;;
34876;SDS011;21086;44.780;17.194;2022-10-23T11:36:12;7.13;;;4.03;;
34876;SDS011;21086;44.780;17.194;2022-10-23T11:38:48;5.10;;;4.60;;
34876;SDS011;21086;44.780;17.194;2022-10-23T11:41:19;5.88;;;4.30;;
34876;SDS011;21086;44.780;17.194;2022-10-23T11:43:53;5.85;;;4.55;;
34876;SDS011;21086;44.780;17.194;2022-10-23T11:46:32;5.65;;;5.05;;
34876;SDS011;21086;44.780;17.194;2022-10-23T11:49:02;7.60;;;5.47;;
34876;SDS011;21086;44.780;17.194;2022-10-23T11:51:35;5.45;;;4.78;;
34876;SDS011;21086;44.780;17.194;2022-10-23T11:54:06;5.32;;;4.32;;
34876;SDS011;21086;44.780;17.194;2022-10-23T11:56:36;4.55;;;3.35;;
34876;SDS011;21086;44.780;17.194;2022-10-23T11:59:26;5.25;;;3.22;;
34876;SDS011;21086;44.780;17.194;2022-10-23T12:01:59;8.27;;;3.83;;
34876;SDS011;21086;44.780;17.194;2022-10-23T12:04:37;5.50;;;3.67;;
34876;SDS011;21086;44.780;17.194;2022-10-23T12:07:15;6.50;;;5.05;;
34876;SDS011;21086;44.780;17.194;2022-10-23T12:09:51;7.20;;;4.47;;
34876;SDS011;21086;44.780;17.194;2022-10-23T12:12:28;9.13;;;5.13;;
34876;SDS011;21086;44.780;17.194;2022-10-23T12:17:34;7.68;;;5.22;;
34876;SDS011;21086;44.780;17.194;2022-10-23T12:30:38;7.32;;;5.47;;
34876;SDS011;21086;44.780;17.194;2022-10-23T12:33:12;9.05;;;6.28;;
34876;SDS011;21086;44.780;17.194;2022-10-23T12:39:00;10.98;;;6.80;;
34876;SDS011;21086;44.780;17.194;2022-10-23T12:41:28;15.15;;;6.70;;
34876;SDS011;21086;44.780;17.194;2022-10-23T12:44:00;21.30;;;16.98;;
34876;SDS011;21086;44.780;17.194;2022-10-23T12:49:00;7.88;;;5.60;;
34876;SDS011;21086;44.780;17.194;2022-10-23T12:51:31;5.78;;;4.57;;
34876;SDS011;21086;44.780;17.194;2022-10-23T12:53:59;6.35;;;4.38;;
34876;SDS011;21086;44.780;17.194;2022-10-23T12:56:33;6.72;;;4.97;;
34876;SDS011;21086;44.780;17.194;2022-10-23T12:59:01;6.45;;;4.43;;
34876;SDS011;21086;44.780;17.194;2022-10-23T13:01:31;9.57;;;4.82;;
34876;SDS011;21086;44.780;17.194;2022-10-23T13:06:47;6.57;;;4.10;;
34876;SDS011;21086;44.780;17.194;2022-10-23T13:09:28;6.25;;;3.60;;
34876;SDS011;21086;44.780;17.194;2022-10-23T13:12:01;4.88;;;4.38;;
34876;SDS011;21086;44.780;17.194;2022-10-23T13:14:37;6.68;;;4.40;;
34876;SDS011;21086;44.780;17.194;2022-10-23T13:17:10;7.38;;;4.85;;
34876;SDS011;21086;44.780;17.194;2022-10-23T13:19:37;10.68;;;4.60;;
34876;SDS011;21086;44.780;17.194;2022-10-23T13:22:14;5.47;;;3.42;;
34876;SDS011;21086;44.780;17.194;2022-10-23T13:24:45;5.57;;;3.65;;
34876;SDS011;21086;44.780;17.194;2022-10-23T13:27:32;6.70;;;3.92;;
34876;SDS011;21086;44.780;17.194;2022-10-23T13:29:59;5.20;;;4.18;;
34876;SDS011;21086;44.780;17.194;2022-10-23T13:32:28;6.78;;;4.38;;
34876;SDS011;21086;44.780;17.194;2022-10-23T13:34:56;6.95;;;3.40;;
34876;SDS011;21086;44.780;17.194;2022-10-23T13:37:42;7.68;;;3.67;;
34876;SDS011;21086;44.780;17.194;2022-10-23T13:40:21;6.45;;;4.53;;
34876;SDS011;21086;44.780;17.194;2022-10-23T13:42:52;5.95;;;3.90;;
34876;SDS011;21086;44.780;17.194;2022-10-23T13:45:24;6.30;;;3.88;;
34876;SDS011;21086;44.780;17.194;2022-10-23T13:47:52;5.60;;;3.88;;
34876;SDS011;21086;44.780;17.194;2022-10-23T13:50:19;7.57;;;3.35;;
34876;SDS011;21086;44.780;17.194;2022-10-23T13:52:46;4.65;;;3.25;;
34876;SDS011;21086;44.780;17.194;2022-10-23T13:55:23;5.55;;;4.05;;
34876;SDS011;21086;44.780;17.194;2022-10-23T13:57:51;8.23;;;4.32;;
34876;SDS011;21086;44.780;17.194;2022-10-23T14:00:19;9.38;;;4.47;;
34876;SDS011;21086;44.780;17.194;2022-10-23T14:02:45;7.53;;;3.97;;
34876;SDS011;21086;44.780;17.194;2022-10-23T14:05:12;5.47;;;4.60;;
34876;SDS011;21086;44.780;17.194;2022-10-23T14:07:39;8.75;;;4.85;;
34876;SDS011;21086;44.780;17.194;2022-10-23T14:10:06;5.72;;;4.70;;
34876;SDS011;21086;44.780;17.194;2022-10-23T14:12:40;12.48;;;5.75;;
34876;SDS011;21086;44.780;17.194;2022-10-23T14:15:09;12.45;;;6.22;;
34876;SDS011;21086;44.780;17.194;2022-10-23T14:17:37;9.98;;;5.93;;
34876;SDS011;21086;44.780;17.194;2022-10-23T14:20:04;7.72;;;5.35;;
34876;SDS011;21086;44.780;17.194;2022-10-23T14:22:31;15.27;;;5.88;;
34876;SDS011;21086;44.780;17.194;2022-10-23T14:24:58;15.32;;;6.25;;
34876;SDS011;21086;44.780;17.194;2022-10-23T14:27:25;8.65;;;6.75;;
34876;SDS011;21086;44.780;17.194;2022-10-23T14:29:52;13.18;;;6.53;;
34876;SDS011;21086;44.780;17.194;2022-10-23T14:32:19;8.95;;;6.70;;
34876;SDS011;21086;44.780;17.194;2022-10-23T14:34:48;10.38;;;6.30;;
34876;SDS011;21086;44.780;17.194;2022-10-23T14:37:17;15.70;;;7.18;;
34876;SDS011;21086;44.780;17.194;2022-10-23T14:39:45;12.98;;;6.13;;
34876;SDS011;21086;44.780;17.194;2022-10-23T14:42:15;10.20;;;7.60;;
34876;SDS011;21086;44.780;17.194;2022-10-23T14:44:42;10.10;;;6.60;;
34876;SDS011;21086;44.780;17.194;2022-10-23T14:47:10;8.85;;;5.40;;
34876;SDS011;21086;44.780;17.194;2022-10-23T14:49:37;7.47;;;5.07;;
34876;SDS011;21086;44.780;17.194;2022-10-23T14:52:06;10.77;;;5.35;;
34876;SDS011;21086;44.780;17.194;2022-10-23T14:54:34;8.68;;;5.45;;
34876;SDS011;21086;44.780;17.194;2022-10-23T14:57:02;14.27;;;5.78;;
34876;SDS011;21086;44.780;17.194;2022-10-23T14:59:31;12.20;;;7.03;;
34876;SDS011;21086;44.780;17.194;2022-10-23T15:01:58;17.65;;;7.75;;
34876;SDS011;21086;44.780;17.194;2022-10-23T15:04:24;11.60;;;7.15;;
34876;SDS011;21086;44.780;17.194;2022-10-23T15:06:51;11.95;;;7.68;;
34876;SDS011;21086;44.780;17.194;2022-10-23T15:09:18;13.25;;;8.88;;
34876;SDS011;21086;44.780;17.194;2022-10-23T15:11:45;14.00;;;9.18;;
34876;SDS011;21086;44.780;17.194;2022-10-23T15:14:12;12.23;;;8.77;;
34876;SDS011;21086;44.780;17.194;2022-10-23T15:16:39;17.88;;;9.48;;
34876;SDS011;21086;44.780;17.194;2022-10-23T15:19:08;11.77;;;9.63;;
34876;SDS011;21086;44.780;17.194;2022-10-23T15:21:42;14.05;;;11.05;;
34876;SDS011;21086;44.780;17.194;2022-10-23T15:24:09;14.95;;;10.30;;
34876;SDS011;21086;44.780;17.194;2022-10-23T15:26:40;13.18;;;10.05;;
34876;SDS011;21086;44.780;17.194;2022-10-23T15:29:09;14.63;;;9.40;;
34876;SDS011;21086;44.780;17.194;2022-10-23T15:34:04;17.70;;;9.27;;
34876;SDS011;21086;44.780;17.194;2022-10-23T15:36:32;16.88;;;11.57;;
34876;SDS011;21086;44.780;17.194;2022-10-23T15:38:59;13.07;;;8.32;;
34876;SDS011;21086;44.780;17.194;2022-10-23T15:41:27;12.15;;;7.15;;
34876;SDS011;21086;44.780;17.194;2022-10-23T15:43:59;11.45;;;7.90;;
34876;SDS011;21086;44.780;17.194;2022-10-23T15:46:27;11.27;;;7.93;;
34876;SDS011;21086;44.780;17.194;2022-10-23T15:48:54;12.18;;;8.07;;
34876;SDS011;21086;44.780;17.194;2022-10-23T15:51:21;11.35;;;7.38;;
34876;SDS011;21086;44.780;17.194;2022-10-23T15:53:48;9.15;;;6.95;;
34876;SDS011;21086;44.780;17.194;2022-10-23T15:56:15;16.08;;;8.07;;
34876;SDS011;21086;44.780;17.194;2022-10-23T15:58:42;11.43;;;8.13;;
34876;SDS011;21086;44.780;17.194;2022-10-23T16:01:09;15.60;;;9.73;;
34876;SDS011;21086;44.780;17.194;2022-10-23T16:03:37;11.95;;;8.82;;
34876;SDS011;21086;44.780;17.194;2022-10-23T16:06:04;14.43;;;10.07;;
34876;SDS011;21086;44.780;17.194;2022-10-23T16:08:33;14.75;;;9.88;;
34876;SDS011;21086;44.780;17.194;2022-10-23T16:11:00;17.35;;;10.32;;
34876;SDS011;21086;44.780;17.194;2022-10-23T16:13:27;20.05;;;14.23;;
34876;SDS011;21086;44.780;17.194;2022-10-23T16:15:54;19.95;;;13.57;;
34876;SDS011;21086;44.780;17.194;2022-10-23T16:18:21;20.15;;;13.85;;
34876;SDS011;21086;44.780;17.194;2022-10-23T16:20:49;20.95;;;13.98;;
34876;SDS011;21086;44.780;17.194;2022-10-23T16:23:16;19.23;;;14.68;;
34876;SDS011;21086;44.780;17.194;2022-10-23T16:25:43;18.55;;;11.85;;
34876;SDS011;21086;44.780;17.194;2022-10-23T16:28:11;22.98;;;14.18;;
34876;SDS011;21086;44.780;17.194;2022-10-23T16:30:39;18.48;;;11.07;;
34876;SDS011;21086;44.780;17.194;2022-10-23T16:33:07;18.48;;;12.00;;
34876;SDS011;21086;44.780;17.194;2022-10-23T16:35:34;21.77;;;14.70;;
34876;SDS011;21086;44.780;17.194;2022-10-23T16:38:02;22.80;;;13.65;;
34876;SDS011;21086;44.780;17.194;2022-10-23T16:40:29;21.40;;;14.15;;